sensor_id;sensor_type;location;lat;lon;timestamp;P1;durP1;ratioP1;P2;durP2;ratioP2
41568;SDS011;27283;52.504;13.358;2023-06-10T00:01:36;16.25;;;6.20;;
41568;SDS011;27283;52.504;13.358;2023-06-10T00:04:12;16.73;;;6.47;;
41568;SDS011;27283;52.504;13.358;2023-06-10T00:06:45;24.15;;;6.50;;
41568;SDS011;27283;52.504;13.358;2023-06-10T00:09:18;16.45;;;6.55;;
41568;SDS011;27283;52.504;13.358;2023-06-10T00:11:51;14.80;;;5.95;;
41568;SDS011;27283;52.504;13.358;2023-06-10T00:14:23;17.52;;;6.82;;
41568;SDS011;27283;52.504;13.358;2023-06-10T00:16:55;18.77;;;7.00;;
41568;SDS011;27283;52.504;13.358;2023-06-10T00:19:30;16.20;;;6.28;;
41568;SDS011;27283;52.504;13.358;2023-06-10T00:22:03;15.93;;;5.82;;
41568;SDS011;27283;52.504;13.358;2023-06-10T00:24:36;19.58;;;6.45;;
41568;SDS011;27283;52.504;13.358;2023-06-10T00:27:10;15.07;;;6.55;;
41568;SDS011;27283;52.504;13.358;2023-06-10T00:29:42;17.58;;;6.60;;
41568;SDS011;27283;52.504;13.358;2023-06-10T00:32:14;11.02;;;5.53;;
41568;SDS011;27283;52.504;13.358;2023-06-10T00:34:49;14.90;;;6.38;;
41568;SDS011;27283;52.504;13.358;2023-06-10T00:37:21;17.00;;;6.82;;
41568;SDS011;27283;52.504;13.358;2023-06-10T00:39:54;18.95;;;6.50;;
41568;SDS011;27283;52.504;13.358;2023-06-10T00:42:26;21.27;;;6.75;;
41568;SDS011;27283;52.504;13.358;2023-06-10T00:44:58;16.23;;;6.63;;
41568;SDS011;27283;52.504;13.358;2023-06-10T00:47:30;18.63;;;6.43;;
41568;SDS011;27283;52.504;13.358;2023-06-10T00:50:07;17.33;;;6.05;;
41568;SDS011;27283;52.504;13.358;2023-06-10T00:52:41;16.02;;;6.30;;
41568;SDS011;27283;52.504;13.358;2023-06-10T00:55:17;18.33;;;6.10;;
41568;SDS011;27283;52.504;13.358;2023-06-10T00:57:49;13.80;;;6.22;;
41568;SDS011;27283;52.504;13.358;2023-06-10T01:00:23;19.90;;;6.65;;
41568;SDS011;27283;52.504;13.358;2023-06-10T01:02:55;15.63;;;6.13;;
41568;SDS011;27283;52.504;13.358;2023-06-10T01:05:30;14.50;;;6.50;;
41568;SDS011;27283;52.504;13.358;2023-06-10T01:08:03;15.88;;;6.70;;
41568;SDS011;27283;52.504;13.358;2023-06-10T01:10:48;12.35;;;5.90;;
41568;SDS011;27283;52.504;13.358;2023-06-10T01:13:25;15.73;;;6.35;;
41568;SDS011;27283;52.504;13.358;2023-06-10T01:16:00;16.17;;;6.53;;
41568;SDS011;27283;52.504;13.358;2023-06-10T01:18:33;17.73;;;6.22;;
41568;SDS011;27283;52.504;13.358;2023-06-10T01:24:05;15.55;;;6.60;;
41568;SDS011;27283;52.504;13.358;2023-06-10T01:26:39;20.67;;;6.82;;
41568;SDS011;27283;52.504;13.358;2023-06-10T01:29:14;18.63;;;7.03;;
41568;SDS011;27283;52.504;13.358;2023-06-10T01:31:51;18.52;;;6.50;;
41568;SDS011;27283;52.504;13.358;2023-06-10T01:34:31;21.05;;;6.97;;
41568;SDS011;27283;52.504;13.358;2023-06-10T01:37:07;18.35;;;6.50;;
41568;SDS011;27283;52.504;13.358;2023-06-10T01:39:43;18.92;;;6.03;;
41568;SDS011;27283;52.504;13.358;2023-06-10T01:42:19;18.67;;;5.95;;
41568;SDS011;27283;52.504;13.358;2023-06-10T01:44:52;16.40;;;5.82;;
41568;SDS011;27283;52.504;13.358;2023-06-10T01:47:25;16.10;;;6.03;;
41568;SDS011;27283;52.504;13.358;2023-06-10T01:49:57;23.45;;;6.47;;
41568;SDS011;27283;52.504;13.358;2023-06-10T01:52:32;16.40;;;6.38;;
41568;SDS011;27283;52.504;13.358;2023-06-10T01:55:06;19.85;;;6.47;;
41568;SDS011;27283;52.504;13.358;2023-06-10T01:57:39;19.13;;;6.10;;
41568;SDS011;27283;52.504;13.358;2023-06-10T02:00:12;24.55;;;6.93;;
41568;SDS011;27283;52.504;13.358;2023-06-10T02:02:45;17.38;;;6.32;;
41568;SDS011;27283;52.504;13.358;2023-06-10T02:05:17;17.30;;;6.65;;
41568;SDS011;27283;52.504;13.358;2023-06-10T02:07:53;15.95;;;6.30;;
41568;SDS011;27283;52.504;13.358;2023-06-10T02:10:25;17.45;;;6.35;;
41568;SDS011;27283;52.504;13.358;2023-06-10T02:12:58;20.67;;;6.95;;
41568;SDS011;27283;52.504;13.358;2023-06-10T02:15:30;15.88;;;6.75;;
41568;SDS011;27283;52.504;13.358;2023-06-10T02:18:02;19.80;;;7.00;;
41568;SDS011;27283;52.504;13.358;2023-06-10T02:20:35;19.92;;;6.60;;
41568;SDS011;27283;52.504;13.358;2023-06-10T02:23:10;20.63;;;7.22;;
41568;SDS011;27283;52.504;13.358;2023-06-10T02:25:42;20.38;;;7.03;;
41568;SDS011;27283;52.504;13.358;2023-06-10T02:28:16;17.73;;;6.75;;
41568;SDS011;27283;52.504;13.358;2023-06-10T02:30:48;18.08;;;7.10;;
41568;SDS011;27283;52.504;13.358;2023-06-10T02:33:21;20.85;;;6.65;;
41568;SDS011;27283;52.504;13.358;2023-06-10T02:35:52;16.33;;;6.60;;
41568;SDS011;27283;52.504;13.358;2023-06-10T02:38:28;17.45;;;6.93;;
41568;SDS011;27283;52.504;13.358;2023-06-10T02:41:00;21.27;;;7.00;;
41568;SDS011;27283;52.504;13.358;2023-06-10T02:43:32;25.00;;;7.35;;
41568;SDS011;27283;52.504;13.358;2023-06-10T02:46:04;20.83;;;7.38;;
41568;SDS011;27283;52.504;13.358;2023-06-10T02:48:40;19.77;;;7.07;;
41568;SDS011;27283;52.504;13.358;2023-06-10T02:51:13;21.00;;;7.35;;
41568;SDS011;27283;52.504;13.358;2023-06-10T02:53:49;21.67;;;7.03;;
41568;SDS011;27283;52.504;13.358;2023-06-10T02:56:21;22.80;;;7.47;;
41568;SDS011;27283;52.504;13.358;2023-06-10T02:59:10;25.40;;;7.47;;
41568;SDS011;27283;52.504;13.358;2023-06-10T03:01:42;26.55;;;7.88;;
41568;SDS011;27283;52.504;13.358;2023-06-10T03:04:15;16.80;;;7.03;;
41568;SDS011;27283;52.504;13.358;2023-06-10T03:06:47;18.90;;;7.03;;
41568;SDS011;27283;52.504;13.358;2023-06-10T03:09:22;18.77;;;7.15;;
41568;SDS011;27283;52.504;13.358;2023-06-10T03:11:54;16.80;;;6.82;;
41568;SDS011;27283;52.504;13.358;2023-06-10T03:14:27;16.15;;;6.95;;
41568;SDS011;27283;52.504;13.358;2023-06-10T03:16:59;17.55;;;7.10;;
41568;SDS011;27283;52.504;13.358;2023-06-10T03:19:32;17.98;;;7.10;;
41568;SDS011;27283;52.504;13.358;2023-06-10T03:22:10;15.38;;;6.75;;
41568;SDS011;27283;52.504;13.358;2023-06-10T03:24:46;18.33;;;7.85;;
41568;SDS011;27283;52.504;13.358;2023-06-10T03:27:19;18.10;;;7.35;;
41568;SDS011;27283;52.504;13.358;2023-06-10T03:29:51;18.08;;;7.88;;
41568;SDS011;27283;52.504;13.358;2023-06-10T03:32:23;23.83;;;8.00;;
41568;SDS011;27283;52.504;13.358;2023-06-10T03:34:56;16.00;;;7.20;;
41568;SDS011;27283;52.504;13.358;2023-06-10T03:37:28;16.90;;;7.07;;
41568;SDS011;27283;52.504;13.358;2023-06-10T03:40:04;23.00;;;7.38;;
41568;SDS011;27283;52.504;13.358;2023-06-10T03:42:37;24.45;;;7.22;;
41568;SDS011;27283;52.504;13.358;2023-06-10T03:45:09;23.52;;;7.68;;
41568;SDS011;27283;52.504;13.358;2023-06-10T03:47:42;23.85;;;8.32;;
41568;SDS011;27283;52.504;13.358;2023-06-10T03:50:17;17.50;;;7.15;;
41568;SDS011;27283;52.504;13.358;2023-06-10T03:52:49;21.00;;;7.55;;
41568;SDS011;27283;52.504;13.358;2023-06-10T03:55:24;16.73;;;7.45;;
41568;SDS011;27283;52.504;13.358;2023-06-10T03:57:56;16.27;;;7.18;;
41568;SDS011;27283;52.504;13.358;2023-06-10T04:00:28;18.25;;;7.18;;
41568;SDS011;27283;52.504;13.358;2023-06-10T04:03:09;17.23;;;7.00;;
41568;SDS011;27283;52.504;13.358;2023-06-10T04:05:43;16.85;;;7.13;;
41568;SDS011;27283;52.504;13.358;2023-06-10T04:08:15;19.45;;;7.20;;
41568;SDS011;27283;52.504;13.358;2023-06-10T04:10:52;18.65;;;7.53;;
41568;SDS011;27283;52.504;13.358;2023-06-10T04:13:24;18.15;;;7.25;;
41568;SDS011;27283;52.504;13.358;2023-06-10T04:15:57;18.05;;;7.75;;
41568;SDS011;27283;52.504;13.358;2023-06-10T04:18:29;16.98;;;7.43;;
41568;SDS011;27283;52.504;13.358;2023-06-10T04:21:01;18.73;;;8.07;;
41568;SDS011;27283;52.504;13.358;2023-06-10T04:23:34;18.83;;;7.63;;
41568;SDS011;27283;52.504;13.358;2023-06-10T04:26:10;23.35;;;7.90;;
41568;SDS011;27283;52.504;13.358;2023-06-10T04:28:42;20.45;;;7.78;;
41568;SDS011;27283;52.504;13.358;2023-06-10T04:31:15;16.08;;;7.20;;
41568;SDS011;27283;52.504;13.358;2023-06-10T04:33:47;16.00;;;7.35;;
41568;SDS011;27283;52.504;13.358;2023-06-10T04:36:20;15.70;;;6.93;;
41568;SDS011;27283;52.504;13.358;2023-06-10T04:38:52;16.00;;;7.63;;
41568;SDS011;27283;52.504;13.358;2023-06-10T04:41:27;19.83;;;6.88;;
41568;SDS011;27283;52.504;13.358;2023-06-10T04:43:59;16.67;;;7.47;;
41568;SDS011;27283;52.504;13.358;2023-06-10T04:46:31;18.90;;;7.53;;
41568;SDS011;27283;52.504;13.358;2023-06-10T04:49:04;17.92;;;7.78;;
41568;SDS011;27283;52.504;13.358;2023-06-10T04:51:36;16.75;;;7.65;;
41568;SDS011;27283;52.504;13.358;2023-06-10T04:54:09;19.80;;;7.13;;
41568;SDS011;27283;52.504;13.358;2023-06-10T04:56:44;16.10;;;7.95;;
41568;SDS011;27283;52.504;13.358;2023-06-10T04:59:16;17.48;;;7.55;;
41568;SDS011;27283;52.504;13.358;2023-06-10T05:01:48;22.25;;;8.20;;
41568;SDS011;27283;52.504;13.358;2023-06-10T05:04:20;20.23;;;8.25;;
41568;SDS011;27283;52.504;13.358;2023-06-10T05:06:53;15.82;;;7.35;;
41568;SDS011;27283;52.504;13.358;2023-06-10T05:09:25;18.15;;;7.40;;
41568;SDS011;27283;52.504;13.358;2023-06-10T05:12:00;17.98;;;7.43;;
41568;SDS011;27283;52.504;13.358;2023-06-10T05:14:32;17.50;;;7.35;;
41568;SDS011;27283;52.504;13.358;2023-06-10T05:17:05;21.90;;;7.32;;
41568;SDS011;27283;52.504;13.358;2023-06-10T05:19:37;20.75;;;7.30;;
41568;SDS011;27283;52.504;13.358;2023-06-10T05:22:10;18.65;;;7.35;;
41568;SDS011;27283;52.504;13.358;2023-06-10T05:24:44;19.33;;;7.38;;
41568;SDS011;27283;52.504;13.358;2023-06-10T05:27:19;17.23;;;6.53;;
41568;SDS011;27283;52.504;13.358;2023-06-10T05:29:52;17.00;;;7.10;;
41568;SDS011;27283;52.504;13.358;2023-06-10T05:32:25;15.32;;;6.75;;
41568;SDS011;27283;52.504;13.358;2023-06-10T05:34:57;16.83;;;6.78;;
41568;SDS011;27283;52.504;13.358;2023-06-10T05:37:30;12.23;;;6.10;;
41568;SDS011;27283;52.504;13.358;2023-06-10T05:40:02;15.13;;;6.22;;
41568;SDS011;27283;52.504;13.358;2023-06-10T05:42:38;18.25;;;6.68;;
41568;SDS011;27283;52.504;13.358;2023-06-10T05:45:10;13.98;;;6.78;;
41568;SDS011;27283;52.504;13.358;2023-06-10T05:47:43;15.23;;;6.78;;
41568;SDS011;27283;52.504;13.358;2023-06-10T05:50:15;21.33;;;7.45;;
41568;SDS011;27283;52.504;13.358;2023-06-10T05:52:48;18.27;;;7.40;;
41568;SDS011;27283;52.504;13.358;2023-06-10T05:55:22;14.07;;;6.22;;
41568;SDS011;27283;52.504;13.358;2023-06-10T05:58:03;15.70;;;6.90;;
41568;SDS011;27283;52.504;13.358;2023-06-10T06:00:35;16.83;;;6.80;;
41568;SDS011;27283;52.504;13.358;2023-06-10T06:03:07;17.92;;;7.18;;
41568;SDS011;27283;52.504;13.358;2023-06-10T06:05:39;14.48;;;6.93;;
41568;SDS011;27283;52.504;13.358;2023-06-10T06:08:12;16.98;;;6.82;;
41568;SDS011;27283;52.504;13.358;2023-06-10T06:10:46;14.35;;;7.15;;
41568;SDS011;27283;52.504;13.358;2023-06-10T06:13:22;14.85;;;6.90;;
41568;SDS011;27283;52.504;13.358;2023-06-10T06:15:54;19.08;;;7.13;;
41568;SDS011;27283;52.504;13.358;2023-06-10T06:18:26;16.83;;;7.47;;
41568;SDS011;27283;52.504;13.358;2023-06-10T06:20:58;13.77;;;6.22;;
41568;SDS011;27283;52.504;13.358;2023-06-10T06:23:31;19.90;;;7.18;;
41568;SDS011;27283;52.504;13.358;2023-06-10T06:26:03;19.42;;;7.05;;
41568;SDS011;27283;52.504;13.358;2023-06-10T06:28:39;19.00;;;6.68;;
41568;SDS011;27283;52.504;13.358;2023-06-10T06:31:11;19.85;;;7.30;;
41568;SDS011;27283;52.504;13.358;2023-06-10T06:33:43;16.30;;;7.20;;
41568;SDS011;27283;52.504;13.358;2023-06-10T06:36:16;14.95;;;7.13;;
41568;SDS011;27283;52.504;13.358;2023-06-10T06:38:48;12.82;;;7.22;;
41568;SDS011;27283;52.504;13.358;2023-06-10T06:41:20;17.13;;;7.80;;
41568;SDS011;27283;52.504;13.358;2023-06-10T06:43:57;14.05;;;7.07;;
41568;SDS011;27283;52.504;13.358;2023-06-10T06:46:29;15.23;;;7.75;;
41568;SDS011;27283;52.504;13.358;2023-06-10T06:49:02;15.70;;;7.30;;
41568;SDS011;27283;52.504;13.358;2023-06-10T06:51:33;15.88;;;7.90;;
41568;SDS011;27283;52.504;13.358;2023-06-10T06:54:06;14.88;;;7.43;;
41568;SDS011;27283;52.504;13.358;2023-06-10T06:56:38;14.63;;;7.05;;
41568;SDS011;27283;52.504;13.358;2023-06-10T06:59:13;15.80;;;7.10;;
41568;SDS011;27283;52.504;13.358;2023-06-10T07:01:47;13.93;;;7.50;;
41568;SDS011;27283;52.504;13.358;2023-06-10T07:04:19;12.50;;;6.95;;
41568;SDS011;27283;52.504;13.358;2023-06-10T07:06:52;17.17;;;7.97;;
41568;SDS011;27283;52.504;13.358;2023-06-10T07:09:24;14.18;;;7.22;;
41568;SDS011;27283;52.504;13.358;2023-06-10T07:11:56;15.00;;;7.25;;
41568;SDS011;27283;52.504;13.358;2023-06-10T07:14:31;16.83;;;7.53;;
41568;SDS011;27283;52.504;13.358;2023-06-10T07:17:03;20.92;;;7.55;;
41568;SDS011;27283;52.504;13.358;2023-06-10T07:19:36;12.55;;;6.55;;
41568;SDS011;27283;52.504;13.358;2023-06-10T07:22:08;19.33;;;7.32;;
41568;SDS011;27283;52.504;13.358;2023-06-10T07:24:40;16.77;;;7.20;;
41568;SDS011;27283;52.504;13.358;2023-06-10T07:27:12;16.13;;;7.45;;
41568;SDS011;27283;52.504;13.358;2023-06-10T07:29:46;20.13;;;7.53;;
41568;SDS011;27283;52.504;13.358;2023-06-10T07:32:19;14.05;;;7.30;;
41568;SDS011;27283;52.504;13.358;2023-06-10T07:34:52;16.52;;;7.00;;
41568;SDS011;27283;52.504;13.358;2023-06-10T07:37:24;15.73;;;7.55;;
41568;SDS011;27283;52.504;13.358;2023-06-10T07:39:56;14.98;;;7.15;;
41568;SDS011;27283;52.504;13.358;2023-06-10T07:42:28;13.45;;;7.50;;
41568;SDS011;27283;52.504;13.358;2023-06-10T07:45:03;11.55;;;6.82;;
41568;SDS011;27283;52.504;13.358;2023-06-10T07:47:35;16.45;;;7.25;;
41568;SDS011;27283;52.504;13.358;2023-06-10T07:50:08;12.93;;;7.38;;
41568;SDS011;27283;52.504;13.358;2023-06-10T07:52:40;15.38;;;7.60;;
41568;SDS011;27283;52.504;13.358;2023-06-10T07:55:12;14.35;;;7.50;;
41568;SDS011;27283;52.504;13.358;2023-06-10T07:57:44;22.00;;;8.40;;
41568;SDS011;27283;52.504;13.358;2023-06-10T08:00:19;17.58;;;7.90;;
41568;SDS011;27283;52.504;13.358;2023-06-10T08:02:51;15.50;;;7.43;;
41568;SDS011;27283;52.504;13.358;2023-06-10T08:05:24;16.15;;;8.32;;
41568;SDS011;27283;52.504;13.358;2023-06-10T08:07:57;13.60;;;7.85;;
41568;SDS011;27283;52.504;13.358;2023-06-10T08:10:31;14.32;;;8.02;;
41568;SDS011;27283;52.504;13.358;2023-06-10T08:13:04;24.33;;;12.88;;
41568;SDS011;27283;52.504;13.358;2023-06-10T08:15:39;22.33;;;12.60;;
41568;SDS011;27283;52.504;13.358;2023-06-10T08:18:11;20.52;;;11.73;;
41568;SDS011;27283;52.504;13.358;2023-06-10T08:20:43;26.45;;;11.32;;
41568;SDS011;27283;52.504;13.358;2023-06-10T08:23:15;22.13;;;9.32;;
41568;SDS011;27283;52.504;13.358;2023-06-10T08:25:48;18.77;;;8.02;;
41568;SDS011;27283;52.504;13.358;2023-06-10T08:28:20;19.00;;;8.30;;
41568;SDS011;27283;52.504;13.358;2023-06-10T08:30:54;21.20;;;9.23;;
41568;SDS011;27283;52.504;13.358;2023-06-10T08:33:26;14.07;;;7.72;;
41568;SDS011;27283;52.504;13.358;2023-06-10T08:35:58;15.25;;;8.32;;
41568;SDS011;27283;52.504;13.358;2023-06-10T08:38:30;12.27;;;7.55;;
41568;SDS011;27283;52.504;13.358;2023-06-10T08:41:04;13.82;;;7.97;;
41568;SDS011;27283;52.504;13.358;2023-06-10T08:43:37;16.50;;;7.40;;
41568;SDS011;27283;52.504;13.358;2023-06-10T08:46:18;14.70;;;7.43;;
41568;SDS011;27283;52.504;13.358;2023-06-10T08:48:50;14.07;;;7.57;;
41568;SDS011;27283;52.504;13.358;2023-06-10T08:51:26;14.48;;;7.47;;
41568;SDS011;27283;52.504;13.358;2023-06-10T08:54:01;16.45;;;7.65;;
41568;SDS011;27283;52.504;13.358;2023-06-10T08:56:36;18.67;;;7.80;;
41568;SDS011;27283;52.504;13.358;2023-06-10T08:59:11;13.35;;;7.32;;
41568;SDS011;27283;52.504;13.358;2023-06-10T09:01:48;12.25;;;7.93;;
41568;SDS011;27283;52.504;13.358;2023-06-10T09:04:21;17.58;;;8.10;;
41568;SDS011;27283;52.504;13.358;2023-06-10T09:06:56;13.15;;;7.95;;
41568;SDS011;27283;52.504;13.358;2023-06-10T09:09:29;13.63;;;7.85;;
41568;SDS011;27283;52.504;13.358;2023-06-10T09:12:01;16.20;;;7.75;;
41568;SDS011;27283;52.504;13.358;2023-06-10T09:14:34;14.70;;;8.02;;
41568;SDS011;27283;52.504;13.358;2023-06-10T09:17:09;15.52;;;8.13;;
41568;SDS011;27283;52.504;13.358;2023-06-10T09:19:41;18.65;;;7.30;;
41568;SDS011;27283;52.504;13.358;2023-06-10T09:22:16;15.95;;;7.40;;
41568;SDS011;27283;52.504;13.358;2023-06-10T09:24:48;15.55;;;7.65;;
41568;SDS011;27283;52.504;13.358;2023-06-10T09:27:20;20.40;;;7.32;;
41568;SDS011;27283;52.504;13.358;2023-06-10T09:29:53;14.80;;;7.70;;
41568;SDS011;27283;52.504;13.358;2023-06-10T09:35:28;14.50;;;7.18;;
41568;SDS011;27283;52.504;13.358;2023-06-10T09:38:01;15.15;;;6.95;;
41568;SDS011;27283;52.504;13.358;2023-06-10T09:40:40;17.48;;;7.22;;
41568;SDS011;27283;52.504;13.358;2023-06-10T09:43:22;14.82;;;7.20;;
41568;SDS011;27283;52.504;13.358;2023-06-10T09:45:55;12.80;;;6.70;;
41568;SDS011;27283;52.504;13.358;2023-06-10T09:48:31;16.70;;;7.30;;
41568;SDS011;27283;52.504;13.358;2023-06-10T09:51:08;15.80;;;7.45;;
41568;SDS011;27283;52.504;13.358;2023-06-10T09:53:42;12.93;;;7.47;;
41568;SDS011;27283;52.504;13.358;2023-06-10T09:56:14;16.27;;;8.00;;
41568;SDS011;27283;52.504;13.358;2023-06-10T09:58:46;14.23;;;7.35;;
41568;SDS011;27283;52.504;13.358;2023-06-10T10:01:19;17.35;;;7.90;;
41568;SDS011;27283;52.504;13.358;2023-06-10T10:03:54;14.10;;;7.80;;
41568;SDS011;27283;52.504;13.358;2023-06-10T10:06:26;16.95;;;7.55;;
41568;SDS011;27283;52.504;13.358;2023-06-10T10:09:00;13.27;;;7.47;;
41568;SDS011;27283;52.504;13.358;2023-06-10T10:11:32;13.95;;;7.55;;
41568;SDS011;27283;52.504;13.358;2023-06-10T10:14:07;17.50;;;8.02;;
41568;SDS011;27283;52.504;13.358;2023-06-10T10:16:40;14.15;;;7.28;;
41568;SDS011;27283;52.504;13.358;2023-06-10T10:19:18;15.20;;;7.30;;
41568;SDS011;27283;52.504;13.358;2023-06-10T10:22:07;20.15;;;7.78;;
41568;SDS011;27283;52.504;13.358;2023-06-10T10:24:44;17.13;;;8.48;;
41568;SDS011;27283;52.504;13.358;2023-06-10T10:27:21;13.35;;;8.07;;
41568;SDS011;27283;52.504;13.358;2023-06-10T10:29:59;17.48;;;8.30;;
41568;SDS011;27283;52.504;13.358;2023-06-10T10:32:35;15.02;;;7.95;;
41568;SDS011;27283;52.504;13.358;2023-06-10T10:35:16;14.82;;;7.72;;
41568;SDS011;27283;52.504;13.358;2023-06-10T10:37:52;12.52;;;7.40;;
41568;SDS011;27283;52.504;13.358;2023-06-10T10:40:25;11.57;;;6.80;;
41568;SDS011;27283;52.504;13.358;2023-06-10T10:43:01;10.20;;;5.82;;
41568;SDS011;27283;52.504;13.358;2023-06-10T10:45:34;7.07;;;5.15;;
41568;SDS011;27283;52.504;13.358;2023-06-10T10:48:08;7.90;;;5.13;;
41568;SDS011;27283;52.504;13.358;2023-06-10T10:50:45;7.95;;;5.18;;
41568;SDS011;27283;52.504;13.358;2023-06-10T10:53:29;7.95;;;4.82;;
41568;SDS011;27283;52.504;13.358;2023-06-10T10:56:04;13.00;;;5.60;;
41568;SDS011;27283;52.504;13.358;2023-06-10T10:58:41;8.95;;;5.40;;
41568;SDS011;27283;52.504;13.358;2023-06-10T11:01:14;10.27;;;5.60;;
41568;SDS011;27283;52.504;13.358;2023-06-10T11:03:46;7.97;;;4.90;;
41568;SDS011;27283;52.504;13.358;2023-06-10T11:06:21;11.18;;;5.25;;
41568;SDS011;27283;52.504;13.358;2023-06-10T11:08:53;9.20;;;5.45;;
41568;SDS011;27283;52.504;13.358;2023-06-10T11:11:32;7.80;;;5.45;;
41568;SDS011;27283;52.504;13.358;2023-06-10T11:14:06;8.13;;;5.20;;
41568;SDS011;27283;52.504;13.358;2023-06-10T11:16:41;7.60;;;5.00;;
41568;SDS011;27283;52.504;13.358;2023-06-10T11:22:08;8.70;;;5.50;;
41568;SDS011;27283;52.504;13.358;2023-06-10T11:24:40;10.82;;;5.95;;
41568;SDS011;27283;52.504;13.358;2023-06-10T11:27:16;9.30;;;5.18;;
41568;SDS011;27283;52.504;13.358;2023-06-10T11:29:56;8.32;;;5.75;;
41568;SDS011;27283;52.504;13.358;2023-06-10T11:32:43;9.68;;;5.75;;
41568;SDS011;27283;52.504;13.358;2023-06-10T11:35:16;7.78;;;5.63;;
41568;SDS011;27283;52.504;13.358;2023-06-10T11:37:51;9.32;;;5.85;;
41568;SDS011;27283;52.504;13.358;2023-06-10T11:40:23;7.35;;;5.25;;
41568;SDS011;27283;52.504;13.358;2023-06-10T11:42:56;8.55;;;5.40;;
41568;SDS011;27283;52.504;13.358;2023-06-10T11:45:32;11.30;;;5.85;;
41568;SDS011;27283;52.504;13.358;2023-06-10T11:48:05;8.07;;;5.43;;
41568;SDS011;27283;52.504;13.358;2023-06-10T11:50:37;9.73;;;5.00;;
41568;SDS011;27283;52.504;13.358;2023-06-10T11:53:13;5.80;;;4.95;;
41568;SDS011;27283;52.504;13.358;2023-06-10T11:55:46;6.80;;;5.03;;
41568;SDS011;27283;52.504;13.358;2023-06-10T11:58:20;10.43;;;5.63;;
41568;SDS011;27283;52.504;13.358;2023-06-10T12:00:53;8.85;;;5.47;;
41568;SDS011;27283;52.504;13.358;2023-06-10T12:03:28;10.27;;;6.20;;
41568;SDS011;27283;52.504;13.358;2023-06-10T12:06:08;11.82;;;6.72;;
41568;SDS011;27283;52.504;13.358;2023-06-10T12:08:43;11.27;;;7.07;;
41568;SDS011;27283;52.504;13.358;2023-06-10T12:11:15;11.45;;;6.43;;
41568;SDS011;27283;52.504;13.358;2023-06-10T12:13:48;10.32;;;6.72;;
41568;SDS011;27283;52.504;13.358;2023-06-10T12:16:21;11.52;;;7.15;;
41568;SDS011;27283;52.504;13.358;2023-06-10T12:19:00;13.73;;;6.90;;
41568;SDS011;27283;52.504;13.358;2023-06-10T12:21:36;11.02;;;6.95;;
41568;SDS011;27283;52.504;13.358;2023-06-10T12:24:11;10.13;;;6.60;;
41568;SDS011;27283;52.504;13.358;2023-06-10T12:26:45;8.52;;;6.07;;
41568;SDS011;27283;52.504;13.358;2023-06-10T12:29:18;10.95;;;6.13;;
41568;SDS011;27283;52.504;13.358;2023-06-10T12:31:56;13.05;;;5.85;;
41568;SDS011;27283;52.504;13.358;2023-06-10T12:34:32;11.27;;;5.97;;
41568;SDS011;27283;52.504;13.358;2023-06-10T12:37:10;12.38;;;7.20;;
41568;SDS011;27283;52.504;13.358;2023-06-10T12:39:53;11.05;;;6.68;;
41568;SDS011;27283;52.504;13.358;2023-06-10T12:42:25;10.25;;;6.93;;
41568;SDS011;27283;52.504;13.358;2023-06-10T12:44:58;12.30;;;7.63;;
41568;SDS011;27283;52.504;13.358;2023-06-10T12:47:31;8.60;;;6.82;;
41568;SDS011;27283;52.504;13.358;2023-06-10T12:50:08;9.30;;;7.07;;
41568;SDS011;27283;52.504;13.358;2023-06-10T12:52:41;11.63;;;7.00;;
41568;SDS011;27283;52.504;13.358;2023-06-10T12:55:16;10.75;;;7.10;;
41568;SDS011;27283;52.504;13.358;2023-06-10T12:57:48;9.60;;;6.95;;
41568;SDS011;27283;52.504;13.358;2023-06-10T13:00:21;11.50;;;7.72;;
41568;SDS011;27283;52.504;13.358;2023-06-10T13:02:53;13.77;;;8.38;;
41568;SDS011;27283;52.504;13.358;2023-06-10T13:05:26;14.88;;;8.38;;
41568;SDS011;27283;52.504;13.358;2023-06-10T13:07:58;14.80;;;9.80;;
41568;SDS011;27283;52.504;13.358;2023-06-10T13:10:34;12.43;;;8.52;;
41568;SDS011;27283;52.504;13.358;2023-06-10T13:13:05;11.20;;;8.57;;
41568;SDS011;27283;52.504;13.358;2023-06-10T13:15:38;13.45;;;8.63;;
41568;SDS011;27283;52.504;13.358;2023-06-10T13:18:11;15.75;;;8.90;;
41568;SDS011;27283;52.504;13.358;2023-06-10T13:20:43;13.77;;;8.88;;
41568;SDS011;27283;52.504;13.358;2023-06-10T13:23:15;14.10;;;8.68;;
41568;SDS011;27283;52.504;13.358;2023-06-10T13:25:50;18.50;;;9.20;;
41568;SDS011;27283;52.504;13.358;2023-06-10T13:28:22;13.25;;;8.93;;
41568;SDS011;27283;52.504;13.358;2023-06-10T13:30:54;16.30;;;9.25;;
41568;SDS011;27283;52.504;13.358;2023-06-10T13:33:26;15.27;;;9.05;;
41568;SDS011;27283;52.504;13.358;2023-06-10T13:35:58;14.05;;;8.52;;
41568;SDS011;27283;52.504;13.358;2023-06-10T13:38:29;11.57;;;8.52;;
41568;SDS011;27283;52.504;13.358;2023-06-10T13:41:05;13.63;;;9.00;;
41568;SDS011;27283;52.504;13.358;2023-06-10T13:43:38;14.68;;;8.50;;
41568;SDS011;27283;52.504;13.358;2023-06-10T13:46:10;12.77;;;8.70;;
41568;SDS011;27283;52.504;13.358;2023-06-10T13:48:44;12.68;;;8.35;;
41568;SDS011;27283;52.504;13.358;2023-06-10T13:51:16;12.70;;;8.13;;
41568;SDS011;27283;52.504;13.358;2023-06-10T13:53:48;12.95;;;8.60;;
41568;SDS011;27283;52.504;13.358;2023-06-10T13:56:23;11.38;;;8.50;;
41568;SDS011;27283;52.504;13.358;2023-06-10T13:58:55;15.85;;;8.13;;
41568;SDS011;27283;52.504;13.358;2023-06-10T14:01:31;13.05;;;9.20;;
41568;SDS011;27283;52.504;13.358;2023-06-10T14:04:03;12.70;;;8.43;;
41568;SDS011;27283;52.504;13.358;2023-06-10T14:06:35;13.02;;;8.10;;
41568;SDS011;27283;52.504;13.358;2023-06-10T14:09:07;11.05;;;7.85;;
41568;SDS011;27283;52.504;13.358;2023-06-10T14:11:42;14.52;;;7.80;;
41568;SDS011;27283;52.504;13.358;2023-06-10T14:14:13;14.73;;;8.07;;
41568;SDS011;27283;52.504;13.358;2023-06-10T14:16:46;11.18;;;7.70;;
41568;SDS011;27283;52.504;13.358;2023-06-10T14:19:18;16.30;;;8.00;;
41568;SDS011;27283;52.504;13.358;2023-06-10T14:21:50;12.85;;;7.70;;
41568;SDS011;27283;52.504;13.358;2023-06-10T14:24:23;14.00;;;7.95;;
41568;SDS011;27283;52.504;13.358;2023-06-10T14:26:58;14.93;;;6.97;;
41568;SDS011;27283;52.504;13.358;2023-06-10T14:29:32;10.65;;;6.95;;
41568;SDS011;27283;52.504;13.358;2023-06-10T14:32:04;10.18;;;6.93;;
41568;SDS011;27283;52.504;13.358;2023-06-10T14:34:38;11.07;;;6.80;;
41568;SDS011;27283;52.504;13.358;2023-06-10T14:37:12;9.57;;;6.82;;
41568;SDS011;27283;52.504;13.358;2023-06-10T14:39:44;11.38;;;6.68;;
41568;SDS011;27283;52.504;13.358;2023-06-10T14:42:19;9.25;;;7.13;;
41568;SDS011;27283;52.504;13.358;2023-06-10T14:44:51;13.40;;;6.78;;
41568;SDS011;27283;52.504;13.358;2023-06-10T14:47:23;8.38;;;6.45;;
41568;SDS011;27283;52.504;13.358;2023-06-10T14:49:55;10.20;;;6.60;;
41568;SDS011;27283;52.504;13.358;2023-06-10T14:52:27;9.18;;;7.15;;
41568;SDS011;27283;52.504;13.358;2023-06-10T14:54:58;10.90;;;6.65;;
41568;SDS011;27283;52.504;13.358;2023-06-10T14:57:34;10.82;;;6.85;;
41568;SDS011;27283;52.504;13.358;2023-06-10T15:00:07;10.02;;;6.57;;
41568;SDS011;27283;52.504;13.358;2023-06-10T15:02:40;9.10;;;6.57;;
41568;SDS011;27283;52.504;13.358;2023-06-10T15:05:13;9.75;;;6.20;;
41568;SDS011;27283;52.504;13.358;2023-06-10T15:07:46;10.75;;;6.55;;
41568;SDS011;27283;52.504;13.358;2023-06-10T15:10:18;8.93;;;6.30;;